Time;durP1;ratioP1;P1;durP2;ratioP2;P2;SDS_P1;SDS_P2;PMS_P1;PMS_P2;Temp;Humidity;BMP_temperature;BMP_pressure;BME280_temperature;BME280_humidity;BME280_pressure;Samples;Min_cycle;Max_cycle;Signal;HPM_P1;HPM_P2
2021/06/16 00:00:42;;;;;;;;;;;;;;;;;;3553627;27;19927;-45
2021/06/16 00:02:22;;;;;;;;;;;;;;;;;;3553263;27;20462;-45
2021/06/16 00:04:03;;;;;;;;;;;;;;;;;;3554503;27;19972;-46
2021/06/16 00:05:44;;;;;;;;;;;;;;;;;;3553211;27;19927;-45
2021/06/16 00:07:25;;;;;;;;;;;;;;;;;;3555534;27;19952;-45
2021/06/16 00:09:06;;;;;;;;;;;;;;;;;;3553396;27;20023;-45
2021/06/16 00:10:47;;;;;;;;;;;;;;;;;;3554119;27;20067;-45
2021/06/16 00:12:28;;;;;;;;;;;;;;;;;;3554371;27;19931;-45
2021/06/16 00:14:09;;;;;;;;;;;;;;;;;;3561904;27;19926;-45
2021/06/16 00:15:50;;;;;;;;;;;;;;;;;;3561211;27;19970;-46
2021/06/16 00:17:31;;;;;;;;;;;;;;;;;;3552954;27;20013;-45
2021/06/16 00:19:12;;;;;;;;;;;;;;;;;;3554126;27;20053;-45
2021/06/16 00:20:53;;;;;;;;;;;;;;;;;;3554068;27;20378;-45
2021/06/16 00:22:33;;;;;;;;;;;;;;;;;;3553677;27;20321;-45
2021/06/16 00:24:18;;;;;;;;;;;;;;;;;;3554329;27;19933;-45
2021/06/16 00:25:59;;;;;;;;;;;;;;;;;;3552812;27;19927;-45
2021/06/16 00:27:40;;;;;;;;;;;;;;;;;;3555631;27;20350;-45
2021/06/16 00:29:21;;;;;;;;;;;;;;;;;;3552992;27;20018;-45
2021/06/16 00:31:02;;;;;;;;;;;;;;;;;;3553991;27;20043;-45
2021/06/16 00:32:43;;;;;;;;;;;;;;;;;;3552737;27;20463;-45
2021/06/16 00:34:24;;;;;;;;;;;;;;;;;;3556797;27;19974;-45
2021/06/16 00:36:05;;;;;;;;;;;;;;;;;;3557303;27;19934;-45
2021/06/16 00:37:46;;;;;;;;;;;;;;;;;;3555173;27;20376;-45
2021/06/16 00:39:27;;;;;;;;;;;;;;;;;;3555335;27;19927;-45
2021/06/16 00:41:08;;;;;;;;;;;;;;;;;;3555298;27;19939;-45
2021/06/16 00:42:49;;;;;;;;;;;;;;;;;;3555641;27;20069;-45
2021/06/16 00:44:30;;;;;;;;;;;;;;;;;;3555289;27;19934;-46
2021/06/16 00:46:11;;;;;;;;;;;;;;;;;;3557812;27;19976;-45
2021/06/16 00:47:55;;;;;;;;;;;;;;;;;;3557307;27;20297;-45
2021/06/16 00:49:36;;;;;;;;;;;;;;;;;;3555166;27;20438;-45
2021/06/16 00:51:17;;;;;;;;;;;;;;;;;;3557620;27;20021;-45
2021/06/16 00:52:58;;;;;;;;;;;;;;;;;;3555289;27;19927;-45
2021/06/16 00:54:39;;;;;;;;;;;;;;;;;;3556830;27;20034;-45
2021/06/16 00:56:19;;;;;;;;;;;;;;;;;;3555506;27;20298;-46
2021/06/16 00:58:00;;;;;;;;;;;;;;;;;;3556799;27;19934;-45
2021/06/16 00:59:41;;;;;;;;;;;;;;;;;;3557977;27;20058;-45
2021/06/16 01:01:23;;;;;;;;;;;;;;;;;;3555145;27;19927;-46
2021/06/16 01:03:04;;;;;;;;;;;;;;;;;;3556886;27;19927;-47
2021/06/16 01:04:45;;;;;;;;;;;;;;;;;;3555061;27;20399;-45
2021/06/16 01:06:26;;;;;;;;;;;;;;;;;;3556605;27;20021;-45
2021/06/16 01:08:07;;;;;;;;;;;;;;;;;;3555156;27;19937;-45
2021/06/16 01:09:47;;;;;;;;;;;;;;;;;;3556220;27;19927;-45
2021/06/16 01:11:28;;;;;;;;;;;;;;;;;;3556776;27;19979;-45
2021/06/16 01:13:09;;;;;;;;;;;;;;;;;;3555858;27;19971;-41
2021/06/16 01:14:50;;;;;;;;;;;;;;;;;;3566057;27;19926;-42
2021/06/16 01:16:31;;;;;;;;;;;;;;;;;;3554884;27;19927;-42
2021/06/16 01:18:12;;;;;;;;;;;;;;;;;;3555130;27;20061;-41
2021/06/16 01:19:53;;;;;;;;;;;;;;;;;;3555383;27;20437;-42
2021/06/16 01:21:34;;;;;;;;;;;;;;;;;;3557552;27;19927;-41
2021/06/16 01:23:15;;;;;;;;;;;;;;;;;;3556290;27;19952;-41
2021/06/16 01:24:56;;;;;;;;;;;;;;;;;;3555961;27;19927;-41
2021/06/16 01:26:37;;;;;;;;;;;;;;;;;;3557515;27;20373;-42
2021/06/16 01:28:18;;;;;;;;;;;;;;;;;;3554829;27;19927;-41
2021/06/16 01:29:59;;;;;;;;;;;;;;;;;;3557185;27;19933;-42
2021/06/16 01:31:40;;;;;;;;;;;;;;;;;;3554959;27;19927;-42
2021/06/16 01:33:21;;;;;;;;;;;;;;;;;;3556208;27;19926;-41
2021/06/16 01:35:02;;;;;;;;;;;;;;;;;;3555660;27;19954;-41
2021/06/16 01:36:42;;;;;;;;;;;;;;;;;;3555320;27;19948;-41
2021/06/16 01:38:23;;;;;;;;;;;;;;;;;;3555183;27;19926;-41
2021/06/16 01:40:04;;;;;;;;;;;;;;;;;;3554426;27;19979;-41
2021/06/16 01:41:45;;;;;;;;;;;;;;;;;;3555694;27;20277;-41
2021/06/16 01:43:26;;;;;;;;;;;;;;;;;;3554714;27;19971;-42
2021/06/16 01:45:07;;;;;;;;;;;;;;;;;;3553899;27;19934;-41
2021/06/16 01:46:48;;;;;;;;;;;;;;;;;;3555195;27;20004;-42
2021/06/16 01:48:29;;;;;;;;;;;;;;;;;;3555925;27;19999;-42
2021/06/16 01:50:11;;;;;;;;;;;;;;;;;;3557372;27;19927;-41
2021/06/16 01:51:53;;;;;;;;;;;;;;;;;;3554208;27;20017;-42
2021/06/16 01:53:34;;;;;;;;;;;;;;;;;;3555689;27;19927;-42
2021/06/16 01:55:15;;;;;;;;;;;;;;;;;;3554552;27;20418;-41
2021/06/16 01:56:56;;;;;;;;;;;;;;;;;;3555764;27;20022;-41
2021/06/16 01:58:36;;;;;;;;;;;;;;;;;;3554782;27;20319;-41
2021/06/16 02:00:17;;;;;;;;;;;;;;;;;;3556969;27;20026;-41
2021/06/16 02:01:58;;;;;;;;;;;;;;;;;;3555582;27;20022;-41
2021/06/16 02:03:39;;;;;;;;;;;;;;;;;;3554496;27;19927;-41
2021/06/16 02:05:20;;;;;;;;;;;;;;;;;;3554534;27;19931;-41
2021/06/16 02:07:02;;;;;;;;;;;;;;;;;;3554454;27;20022;-42
2021/06/16 02:08:43;;;;;;;;;;;;;;;;;;3557040;27;20388;-41
2021/06/16 02:10:24;;;;;;;;;;;;;;;;;;3554428;27;19927;-41
2021/06/16 02:12:04;;;;;;;;;;;;;;;;;;3556795;27;20302;-42
2021/06/16 02:13:45;;;;;;;;;;;;;;;;;;3558985;27;20383;-42
2021/06/16 02:15:26;;;;;;;;;;;;;;;;;;3555111;27;19927;-41
2021/06/16 02:17:07;;;;;;;;;;;;;;;;;;3556923;27;19956;-42
2021/06/16 02:18:48;;;;;;;;;;;;;;;;;;3554287;27;19931;-41
2021/06/16 02:20:29;;;;;;;;;;;;;;;;;;3555691;27;19990;-42
2021/06/16 02:22:10;;;;;;;;;;;;;;;;;;3554462;27;19949;-42
2021/06/16 02:23:51;;;;;;;;;;;;;;;;;;3556735;27;19927;-42
2021/06/16 02:25:32;;;;;;;;;;;;;;;;;;3555438;27;19938;-42
2021/06/16 02:27:13;;;;;;;;;;;;;;;;;;3555463;27;19933;-41
2021/06/16 02:28:54;;;;;;;;;;;;;;;;;;3557185;27;20002;-46
2021/06/16 02:30:35;;;;;;;;;;;;;;;;;;3554160;27;19976;-45
2021/06/16 02:32:16;;;;;;;;;;;;;;;;;;3554170;27;20441;-45
2021/06/16 02:33:56;;;;;;;;;;;;;;;;;;3554430;27;19958;-45
2021/06/16 02:35:37;;;;;;;;;;;;;;;;;;3556667;27;20295;-46
2021/06/16 02:37:18;;;;;;;;;;;;;;;;;;3553897;27;20021;-45
2021/06/16 02:38:59;;;;;;;;;;;;;;;;;;3555593;27;19940;-45
2021/06/16 02:40:40;;;;;;;;;;;;;;;;;;3555974;27;19960;-41
2021/06/16 02:42:21;;;;;;;;;;;;;;;;;;3553716;27;20008;-42
2021/06/16 02:44:02;;;;;;;;;;;;;;;;;;3556301;27;19931;-42
2021/06/16 02:45:43;;;;;;;;;;;;;;;;;;3554107;27;20484;-42
2021/06/16 02:47:24;;;;;;;;;;;;;;;;;;3556690;27;19933;-45
2021/06/16 02:49:05;;;;;;;;;;;;;;;;;;3553958;27;19966;-46
2021/06/16 02:50:46;;;;;;;;;;;;;;;;;;3556526;27;19927;-45
2021/06/16 02:52:27;;;;;;;;;;;;;;;;;;3555728;27;19927;-45
2021/06/16 02:54:09;;;;;;;;;;;;;;;;;;3554978;27;20384;-46
2021/06/16 02:55:50;;;;;;;;;;;;;;;;;;3557272;27;20444;-46
2021/06/16 02:57:31;;;;;;;;;;;;;;;;;;3552648;27;19931;-45
2021/06/16 02:59:12;;;;;;;;;;;;;;;;;;3556489;27;20481;-45
2021/06/16 03:00:53;;;;;;;;;;;;;;;;;;3554040;27;19927;-46
2021/06/16 03:02:34;;;;;;;;;;;;;;;;;;3555091;27;19966;-46
2021/06/16 03:04:15;;;;;;;;;;;;;;;;;;3554874;27;19937;-44
2021/06/16 03:05:56;;;;;;;;;;;;;;;;;;3553486;27;19927;-46
2021/06/16 03:07:37;;;;;;;;;;;;;;;;;;3555164;27;19931;-45
2021/06/16 03:09:18;;;;;;;;;;;;;;;;;;3553686;27;20346;-46
2021/06/16 03:10:59;;;;;;;;;;;;;;;;;;3556305;27;19934;-46
2021/06/16 03:12:40;;;;;;;;;;;;;;;;;;3554138;27;19949;-46
2021/06/16 03:14:21;;;;;;;;;;;;;;;;;;3554631;27;20075;-45
2021/06/16 03:16:01;;;;;;;;;;;;;;;;;;3555285;27;19938;-47
2021/06/16 03:17:42;;;;;;;;;;;;;;;;;;3554378;27;19966;-45
2021/06/16 03:19:23;;;;;;;;;;;;;;;;;;3556328;27;19927;-45
2021/06/16 03:21:04;;;;;;;;;;;;;;;;;;3553586;27;19978;-46
2021/06/16 03:22:45;;;;;;;;;;;;;;;;;;3557540;27;20023;-45
2021/06/16 03:24:29;;;;;;;;;;;;;;;;;;3553737;27;20192;-47
2021/06/16 03:26:10;;;;;;;;;;;;;;;;;;3556042;27;20403;-49
2021/06/16 03:27:52;;;;;;;;;;;;;;;;;;3555092;27;20008;-45
2021/06/16 03:29:33;;;;;;;;;;;;;;;;;;3554612;27;19966;-49
2021/06/16 03:31:14;;;;;;;;;;;;;;;;;;3555014;27;19927;-46
2021/06/16 03:32:54;;;;;;;;;;;;;;;;;;3553434;27;19933;-45
2021/06/16 03:34:35;;;;;;;;;;;;;;;;;;3555056;27;19927;-47
2021/06/16 03:36:16;;;;;;;;;;;;;;;;;;3553626;27;19931;-45
2021/06/16 03:37:57;;;;;;;;;;;;;;;;;;3555930;27;19934;-46
2021/06/16 03:39:38;;;;;;;;;;;;;;;;;;3554129;27;19962;-48
2021/06/16 03:41:19;;;;;;;;;;;;;;;;;;3555096;27;19979;-45
2021/06/16 03:43:00;;;;;;;;;;;;;;;;;;3556411;27;20351;-49
2021/06/16 03:44:41;;;;;;;;;;;;;;;;;;3553252;27;20010;-47
2021/06/16 03:46:22;;;;;;;;;;;;;;;;;;3553378;27;20296;-49
2021/06/16 03:48:03;;;;;;;;;;;;;;;;;;3553237;27;19927;-46
2021/06/16 03:49:44;;;;;;;;;;;;;;;;;;3553278;27;19934;-47
2021/06/16 03:51:27;;;;;;;;;;;;;;;;;;3552824;27;19972;-45
2021/06/16 03:53:07;;;;;;;;;;;;;;;;;;3554853;27;19975;-45
2021/06/16 03:54:48;;;;;;;;;;;;;;;;;;3553361;27;19934;-45
2021/06/16 03:56:29;;;;;;;;;;;;;;;;;;3553192;27;19934;-45
2021/06/16 03:58:10;;;;;;;;;;;;;;;;;;3553100;27;20410;-45
2021/06/16 03:59:51;;;;;;;;;;;;;;;;;;3553396;27;19966;-45
2021/06/16 04:01:32;;;;;;;;;;;;;;;;;;3554409;27;20401;-45
2021/06/16 04:03:13;;;;;;;;;;;;;;;;;;3553404;27;19933;-46
2021/06/16 04:04:54;;;;;;;;;;;;;;;;;;3554310;27;20374;-45
2021/06/16 04:06:35;;;;;;;;;;;;;;;;;;3554171;27;20022;-46
2021/06/16 04:08:16;;;;;;;;;;;;;;;;;;3552767;27;20396;-45
2021/06/16 04:09:57;;;;;;;;;;;;;;;;;;3554717;27;19931;-45
2021/06/16 04:11:38;;;;;;;;;;;;;;;;;;3553240;27;19933;-42
2021/06/16 04:13:19;;;;;;;;;;;;;;;;;;3553427;27;19930;-42
2021/06/16 04:14:59;;;;;;;;;;;;;;;;;;3552981;27;19934;-42
2021/06/16 04:16:40;;;;;;;;;;;;;;;;;;3555532;27;19971;-42
2021/06/16 04:18:22;;;;;;;;;;;;;;;;;;3553451;27;19931;-42
2021/06/16 04:20:05;;;;;;;;;;;;;;;;;;3552814;27;20313;-42
2021/06/16 04:21:46;;;;;;;;;;;;;;;;;;3555511;27;19926;-42
2021/06/16 04:23:27;;;;;;;;;;;;;;;;;;3553128;27;19992;-42
2021/06/16 04:25:08;;;;;;;;;;;;;;;;;;3555489;27;20373;-42
2021/06/16 04:26:49;;;;;;;;;;;;;;;;;;3553112;27;19967;-42
2021/06/16 04:28:30;;;;;;;;;;;;;;;;;;3555339;27;20315;-42
2021/06/16 04:30:11;;;;;;;;;;;;;;;;;;3554691;27;20022;-42
2021/06/16 04:31:52;;;;;;;;;;;;;;;;;;3553800;27;19931;-42
2021/06/16 04:33:33;;;;;;;;;;;;;;;;;;3555744;27;20305;-42
2021/06/16 04:35:14;;;;;;;;;;;;;;;;;;3552610;27;19927;-42
2021/06/16 04:36:55;;;;;;;;;;;;;;;;;;3557762;27;19938;-42
2021/06/16 04:38:36;;;;;;;;;;;;;;;;;;3553290;27;19958;-46
2021/06/16 04:40:17;;;;;;;;;;;;;;;;;;3555682;27;19973;-45
2021/06/16 04:41:58;;;;;;;;;;;;;;;;;;3552822;27;19976;-46
2021/06/16 04:43:39;;;;;;;;;;;;;;;;;;3553647;27;20444;-45
2021/06/16 04:45:20;;;;;;;;;;;;;;;;;;3554370;27;19927;-42
2021/06/16 04:47:01;;;;;;;;;;;;;;;;;;3552684;27;19927;-42
2021/06/16 04:48:42;;;;;;;;;;;;;;;;;;3555376;27;19938;-42
2021/06/16 04:50:23;;;;;;;;;;;;;;;;;;3552694;27;20015;-42
2021/06/16 04:52:04;;;;;;;;;;;;;;;;;;3555843;27;20442;-42
2021/06/16 04:53:45;;;;;;;;;;;;;;;;;;3553111;27;19927;-45
2021/06/16 04:55:26;;;;;;;;;;;;;;;;;;3555705;27;19927;-48
2021/06/16 04:57:07;;;;;;;;;;;;;;;;;;3554442;27;20379;-47
2021/06/16 04:58:47;;;;;;;;;;;;;;;;;;3552928;27;20384;-46
2021/06/16 05:00:28;;;;;;;;;;;;;;;;;;3555042;27;19927;-45
2021/06/16 05:02:09;;;;;;;;;;;;;;;;;;3552787;27;19927;-42
2021/06/16 05:03:50;;;;;;;;;;;;;;;;;;3552658;27;19934;-42
2021/06/16 05:05:31;;;;;;;;;;;;;;;;;;3553303;27;20486;-46
2021/06/16 05:07:12;;;;;;;;;;;;;;;;;;3554869;27;19940;-45
2021/06/16 05:08:53;;;;;;;;;;;;;;;;;;3555358;27;19926;-42
2021/06/16 05:10:34;;;;;;;;;;;;;;;;;;3552761;27;20021;-42
2021/06/16 05:12:15;;;;;;;;;;;;;;;;;;3554000;27;19931;-42
2021/06/16 05:13:56;;;;;;;;;;;;;;;;;;3559631;27;19927;-45
2021/06/16 05:15:37;;;;;;;;;;;;;;;;;;3559989;27;20364;-48
2021/06/16 05:17:19;;;;;;;;;;;;;;;;;;3552445;27;19927;-46
2021/06/16 05:19:00;;;;;;;;;;;;;;;;;;3554080;27;19927;-42
2021/06/16 05:20:41;;;;;;;;;;;;;;;;;;3555563;27;19953;-45
2021/06/16 05:22:22;;;;;;;;;;;;;;;;;;3554953;27;20315;-42
2021/06/16 05:24:03;;;;;;;;;;;;;;;;;;3555455;27;19933;-42
2021/06/16 05:25:47;;;;;;;;;;;;;;;;;;3555290;27;20332;-46
2021/06/16 05:27:31;;;;;;;;;;;;;;;;;;3555018;27;19927;-45
2021/06/16 05:29:12;;;;;;;;;;;;;;;;;;3555178;27;19953;-45
2021/06/16 05:30:53;;;;;;;;;;;;;;;;;;3556122;27;19927;-45
2021/06/16 05:32:34;;;;;;;;;;;;;;;;;;3561640;27;19962;-42
2021/06/16 05:34:15;;;;;;;;;;;;;;;;;;3555481;27;19926;-45
2021/06/16 05:35:56;;;;;;;;;;;;;;;;;;3557542;27;20295;-49
2021/06/16 05:37:37;;;;;;;;;;;;;;;;;;3554881;27;19933;-43
2021/06/16 05:39:18;;;;;;;;;;;;;;;;;;3556572;27;19950;-43
2021/06/16 05:40:59;;;;;;;;;;;;;;;;;;3554734;27;19934;-43
2021/06/16 05:42:40;;;;;;;;;;;;;;;;;;3556349;27;19962;-43
2021/06/16 05:44:21;;;;;;;;;;;;;;;;;;3556266;27;20339;-42
2021/06/16 05:46:02;;;;;;;;;;;;;;;;;;3555769;27;19927;-43
2021/06/16 05:47:43;;;;;;;;;;;;;;;;;;3556348;27;19931;-43
2021/06/16 05:49:24;;;;;;;;;;;;;;;;;;3554611;27;19927;-43
2021/06/16 05:51:05;;;;;;;;;;;;;;;;;;3557331;27;20388;-42
2021/06/16 05:52:46;;;;;;;;;;;;;;;;;;3555113;27;19927;-45
2021/06/16 05:54:27;;;;;;;;;;;;;;;;;;3555816;27;19933;-45
2021/06/16 05:56:08;;;;;;;;;;;;;;;;;;3555845;27;19934;-44
2021/06/16 05:57:49;;;;;;;;;;;;;;;;;;3555313;27;20380;-44
2021/06/16 05:59:30;;;;;;;;;;;;;;;;;;3557444;27;19926;-44
2021/06/16 06:01:11;;;;;;;;;;;;;;;;;;3554504;27;19934;-41
2021/06/16 06:02:52;;;;;;;;;;;;;;;;;;3554900;27;20380;-41
2021/06/16 06:04:34;;;;;;;;;;;;;;;;;;3554585;27;20352;-41
2021/06/16 06:06:15;;;;;;;;;;;;;;;;;;3555982;27;19927;-44
2021/06/16 06:07:56;;;;;;;;;;;;;;;;;;3555324;27;19927;-41
2021/06/16 06:09:37;;;;;;;;;;;;;;;;;;3557578;27;19927;-41
2021/06/16 06:11:18;;;;;;;;;;;;;;;;;;3555715;27;19974;-42
2021/06/16 06:12:59;;;;;;;;;;;;;;;;;;3552686;27;19934;-42
2021/06/16 06:14:40;;;;;;;;;;;;;;;;;;3563567;27;19934;-42
2021/06/16 06:16:21;;;;;;;;;;;;;;;;;;3554739;27;19934;-45
2021/06/16 06:18:02;;;;;;;;;;;;;;;;;;3555620;27;19937;-44
2021/06/16 06:19:43;;;;;;;;;;;;;;;;;;3554518;27;19926;-42
2021/06/16 06:21:29;;;;;;;;;;;;;;;;;;3557129;27;19974;-43
2021/06/16 06:23:10;;;;;;;;;;;;;;;;;;3554670;27;20403;-43
2021/06/16 06:24:51;;;;;;;;;;;;;;;;;;3554455;27;19933;-46
2021/06/16 06:26:32;;;;;;;;;;;;;;;;;;3555672;27;20376;-44
2021/06/16 06:28:13;;;;;;;;;;;;;;;;;;3554455;27;19927;-44
2021/06/16 06:29:54;;;;;;;;;;;;;;;;;;3555209;27;19927;-44
2021/06/16 06:31:35;;;;;;;;;;;;;;;;;;3554102;27;19931;-44
2021/06/16 06:33:16;;;;;;;;;;;;;;;;;;3555896;27;19943;-44
2021/06/16 06:34:56;;;;;;;;;;;;;;;;;;3557009;27;19927;-44
2021/06/16 06:36:37;;;;;;;;;;;;;;;;;;3554078;27;19927;-41
2021/06/16 06:38:18;;;;;;;;;;;;;;;;;;3556794;27;20014;-41
2021/06/16 06:39:59;;;;;;;;;;;;;;;;;;3554160;27;19934;-42
2021/06/16 06:41:40;;;;;;;;;;;;;;;;;;3556437;27;19976;-44
2021/06/16 06:43:21;;;;;;;;;;;;;;;;;;3554442;27;20025;-44
2021/06/16 06:45:02;;;;;;;;;;;;;;;;;;3554328;27;19931;-41
2021/06/16 06:46:45;;;;;;;;;;;;;;;;;;3554407;27;19927;-42
2021/06/16 06:48:26;;;;;;;;;;;;;;;;;;3554368;27;19927;-46
2021/06/16 06:50:12;;;;;;;;;;;;;;;;;;3557063;27;20013;-42
2021/06/16 06:51:54;;;;;;;;;;;;;;;;;;3553856;27;20384;-43
2021/06/16 06:53:35;;;;;;;;;;;;;;;;;;3556794;27;19931;-43
2021/06/16 06:55:16;;;;;;;;;;;;;;;;;;3554205;27;19927;-45
2021/06/16 06:56:57;;;;;;;;;;;;;;;;;;3557185;27;19928;-45
2021/06/16 06:58:39;;;;;;;;;;;;;;;;;;3556359;27;19926;-45
2021/06/16 07:00:20;;;;;;;;;;;;;;;;;;3554112;27;20426;-43
2021/06/16 07:02:01;;;;;;;;;;;;;;;;;;3557391;27;19930;-44
2021/06/16 07:03:42;;;;;;;;;;;;;;;;;;3554268;27;20035;-45
2021/06/16 07:05:24;;;;;;;;;;;;;;;;;;3554499;27;19931;-43
2021/06/16 07:07:05;;;;;;;;;;;;;;;;;;3554173;27;19984;-44
2021/06/16 07:08:46;;;;;;;;;;;;;;;;;;3556556;27;19927;-42
2021/06/16 07:10:27;;;;;;;;;;;;;;;;;;3556000;27;20303;-42
2021/06/16 07:12:08;;;;;;;;;;;;;;;;;;3554229;27;20455;-44
2021/06/16 07:13:49;;;;;;;;;;;;;;;;;;3556417;27;19927;-42
2021/06/16 07:15:30;;;;;;;;;;;;;;;;;;3554086;27;20441;-43
2021/06/16 07:17:11;;;;;;;;;;;;;;;;;;3556847;27;20022;-42
2021/06/16 07:18:52;;;;;;;;;;;;;;;;;;3554312;27;19927;-42
2021/06/16 07:20:33;;;;;;;;;;;;;;;;;;3555968;27;19938;-44
2021/06/16 07:22:14;;;;;;;;;;;;;;;;;;3555694;27;19927;-43
2021/06/16 07:23:55;;;;;;;;;;;;;;;;;;3555066;27;19927;-45
2021/06/16 07:25:36;;;;;;;;;;;;;;;;;;3563276;27;19978;-43
2021/06/16 07:27:17;;;;;;;;;;;;;;;;;;3555095;27;20455;-44
2021/06/16 07:28:58;;;;;;;;;;;;;;;;;;3556745;27;20027;-43
2021/06/16 07:30:39;;;;;;;;;;;;;;;;;;3554012;27;19931;-43
2021/06/16 07:32:20;;;;;;;;;;;;;;;;;;3556604;27;19927;-43
2021/06/16 07:34:01;;;;;;;;;;;;;;;;;;3553165;27;19927;-45
2021/06/16 07:35:43;;;;;;;;;;;;;;;;;;3555214;27;19961;-43
2021/06/16 07:37:24;;;;;;;;;;;;;;;;;;3556736;27;19958;-43
2021/06/16 07:39:05;;;;;;;;;;;;;;;;;;3553672;27;20014;-44
2021/06/16 07:40:46;;;;;;;;;;;;;;;;;;3554802;27;20272;-44
2021/06/16 07:42:27;;;;;;;;;;;;;;;;;;3553460;27;19927;-45
2021/06/16 07:44:08;;;;;;;;;;;;;;;;;;3553725;27;20026;-44
2021/06/16 07:45:49;;;;;;;;;;;;;;;;;;3553715;27;19927;-43
2021/06/16 07:47:30;;;;;;;;;;;;;;;;;;3554421;27;19986;-43
2021/06/16 07:49:11;;;;;;;;;;;;;;;;;;3555039;27;19974;-43
2021/06/16 07:50:51;;;;;;;;;;;;;;;;;;3553294;27;19927;-43
2021/06/16 07:52:32;;;;;;;;;;;;;;;;;;3554624;27;20310;-44
2021/06/16 07:54:13;;;;;;;;;;;;;;;;;;3553769;27;19954;-43
2021/06/16 07:55:54;;;;;;;;;;;;;;;;;;3556013;27;20419;-45
2021/06/16 07:57:35;;;;;;;;;;;;;;;;;;3553682;27;19927;-45
2021/06/16 07:59:16;;;;;;;;;;;;;;;;;;3554688;27;20402;-44
2021/06/16 08:00:57;;;;;;;;;;;;;;;;;;3555603;27;19927;-44
2021/06/16 08:02:39;;;;;;;;;;;;;;;;;;3553297;27;20307;-45
2021/06/16 08:04:22;;;;;;;;;;;;;;;;;;3554813;27;19942;-44
2021/06/16 08:06:03;;;;;;;;;;;;;;;;;;3553158;27;20303;-44
2021/06/16 08:07:46;;;;;;;;;;;;;;;;;;3556308;27;19952;-43
2021/06/16 08:09:27;;;;;;;;;;;;;;;;;;3553555;27;19927;-44
2021/06/16 08:11:08;;;;;;;;;;;;;;;;;;3554547;27;19934;-45
2021/06/16 08:12:49;;;;;;;;;;;;;;;;;;3555043;27;19927;-44
2021/06/16 08:14:30;;;;;;;;;;;;;;;;;;3551892;27;19927;-44
2021/06/16 08:16:11;;;;;;;;;;;;;;;;;;3553954;27;20022;-44
2021/06/16 08:17:52;;;;;;;;;;;;;;;;;;3553985;27;19933;-46
2021/06/16 08:19:33;;;;;;;;;;;;;;;;;;3555878;27;19931;-43
2021/06/16 08:21:15;;;;;;;;;;;;;;;;;;3560443;27;20394;-44
2021/06/16 08:22:56;;;;;;;;;;;;;;;;;;3557023;27;19927;-44
2021/06/16 08:24:37;;;;;;;;;;;;;;;;;;3553930;27;19927;-45
2021/06/16 08:26:19;;;;;;;;;;;;;;;;;;3553060;27;19931;-47
2021/06/16 08:28:00;;;;;;;;;;;;;;;;;;3556148;27;19977;-46
2021/06/16 08:29:41;;;;;;;;;;;;;;;;;;3553282;27;19927;-44
2021/06/16 08:31:22;;;;;;;;;;;;;;;;;;3555768;27;20344;-43
2021/06/16 08:33:03;;;;;;;;;;;;;;;;;;3554228;27;19938;-45
2021/06/16 08:34:44;;;;;;;;;;;;;;;;;;3554390;27;20285;-45
2021/06/16 08:36:25;;;;;;;;;;;;;;;;;;3553441;27;19971;-44
2021/06/16 08:38:06;;;;;;;;;;;;;;;;;;3554087;27;19981;-43
2021/06/16 08:39:47;;;;;;;;;;;;;;;;;;3556328;27;20017;-46
2021/06/16 08:41:28;;;;;;;;;;;;;;;;;;3552809;27;20303;-45
2021/06/16 08:43:09;;;;;;;;;;;;;;;;;;3554735;27;19963;-46
2021/06/16 08:44:50;;;;;;;;;;;;;;;;;;3552837;27;20091;-43
2021/06/16 08:46:31;;;;;;;;;;;;;;;;;;3555618;27;19934;-44
2021/06/16 08:48:13;;;;;;;;;;;;;;;;;;3555952;27;19926;-45
2021/06/16 08:49:54;;;;;;;;;;;;;;;;;;3552592;27;19938;-43
2021/06/16 08:51:35;;;;;;;;;;;;;;;;;;3555412;27;20026;-44
2021/06/16 08:53:16;;;;;;;;;;;;;;;;;;3552884;27;19973;-44
2021/06/16 08:54:57;;;;;;;;;;;;;;;;;;3553874;27;19927;-45
2021/06/16 08:56:38;;;;;;;;;;;;;;;;;;3555620;27;19931;-43
2021/06/16 08:58:19;;;;;;;;;;;;;;;;;;3556254;27;20362;-45
2021/06/16 09:00:00;;;;;;;;;;;;;;;;;;3556330;27;19937;-44
2021/06/16 09:01:41;;;;;;;;;;;;;;;;;;3554661;27;19927;-43
2021/06/16 09:03:22;;;;;;;;;;;;;;;;;;3558206;27;19927;-45
2021/06/16 09:05:03;;;;;;;;;;;;;;;;;;3555245;27;20307;-44
2021/06/16 09:06:44;;;;;;;;;;;;;;;;;;3556634;27;20068;-43
2021/06/16 09:08:25;;;;;;;;;;;;;;;;;;3555265;27;19934;-44
2021/06/16 09:10:06;;;;;;;;;;;;;;;;;;3557693;27;19969;-43
2021/06/16 09:11:47;;;;;;;;;;;;;;;;;;3562051;27;20291;-44
2021/06/16 09:13:28;;;;;;;;;;;;;;;;;;3558879;27;19933;-45
2021/06/16 09:15:09;;;;;;;;;;;;;;;;;;3565460;27;19934;-45
2021/06/16 09:16:50;;;;;;;;;;;;;;;;;;3555849;27;20348;-45
2021/06/16 09:18:31;;;;;;;;;;;;;;;;;;3560511;27;19970;-44
2021/06/16 09:20:12;;;;;;;;;;;;;;;;;;3555722;27;19978;-45
2021/06/16 09:21:53;;;;;;;;;;;;;;;;;;3556175;27;19931;-44
2021/06/16 09:23:34;;;;;;;;;;;;;;;;;;3554646;27;19933;-43
2021/06/16 09:25:15;;;;;;;;;;;;;;;;;;3556115;27;19927;-43
2021/06/16 09:26:56;;;;;;;;;;;;;;;;;;3554930;27;19927;-48
2021/06/16 09:28:37;;;;;;;;;;;;;;;;;;3560909;27;19975;-46
2021/06/16 09:30:22;;;;;;;;;;;;;;;;;;3562976;27;20030;-44
2021/06/16 09:32:03;;;;;;;;;;;;;;;;;;3555498;27;19931;-45
2021/06/16 09:33:44;;;;;;;;;;;;;;;;;;3557710;27;19986;-45
2021/06/16 09:35:25;;;;;;;;;;;;;;;;;;3555745;27;20391;-43
2021/06/16 09:37:06;;;;;;;;;;;;;;;;;;3555310;27;19934;-45
2021/06/16 09:38:47;;;;;;;;;;;;;;;;;;3555270;27;19926;-46
2021/06/16 09:40:28;;;;;;;;;;;;;;;;;;3554495;27;20016;-44
2021/06/16 09:42:12;;;;;;;;;;;;;;;;;;3556371;27;19941;-46
2021/06/16 09:43:54;;;;;;;;;;;;;;;;;;3555050;27;20177;-46
2021/06/16 09:45:35;;;;;;;;;;;;;;;;;;3557697;27;20379;-45
2021/06/16 09:47:16;;;;;;;;;;;;;;;;;;3554107;27;19934;-44
2021/06/16 09:48:57;;;;;;;;;;;;;;;;;;3556345;27;19936;-44
2021/06/16 09:50:38;;;;;;;;;;;;;;;;;;3557489;27;19931;-44
2021/06/16 09:52:19;;;;;;;;;;;;;;;;;;3554295;27;19934;-44
2021/06/16 09:54:00;;;;;;;;;;;;;;;;;;3557392;27;19927;-43
2021/06/16 09:55:41;;;;;;;;;;;;;;;;;;3555001;27;19974;-45
2021/06/16 09:57:22;;;;;;;;;;;;;;;;;;3556320;27;19935;-44
2021/06/16 09:59:03;;;;;;;;;;;;;;;;;;3554948;27;19975;-44
2021/06/16 10:00:44;;;;;;;;;;;;;;;;;;3556948;27;19927;-44
2021/06/16 10:02:28;;;;;;;;;;;;;;;;;;3556520;27;20455;-44
2021/06/16 10:04:10;;;;;;;;;;;;;;;;;;3554748;27;19927;-46
2021/06/16 10:05:50;;;;;;;;;;;;;;;;;;3556727;27;20395;-44
2021/06/16 10:07:32;;;;;;;;;;;;;;;;;;3554733;27;19934;-45
2021/06/16 10:09:13;;;;;;;;;;;;;;;;;;3555511;27;19927;-44
2021/06/16 10:10:54;;;;;;;;;;;;;;;;;;3554412;27;19938;-45
2021/06/16 10:12:35;;;;;;;;;;;;;;;;;;3556641;27;20021;-44
2021/06/16 10:14:16;;;;;;;;;;;;;;;;;;3559025;27;20394;-44
2021/06/16 10:15:57;;;;;;;;;;;;;;;;;;3554823;27;19954;-44
2021/06/16 10:17:37;;;;;;;;;;;;;;;;;;3557184;27;19934;-45
2021/06/16 10:19:19;;;;;;;;;;;;;;;;;;3554895;27;19927;-44
2021/06/16 10:21:00;;;;;;;;;;;;;;;;;;3555102;27;19961;-45
2021/06/16 10:22:41;;;;;;;;;;;;;;;;;;3555937;27;20387;-44
2021/06/16 10:24:22;;;;;;;;;;;;;;;;;;3555486;27;19927;-44
2021/06/16 10:26:04;;;;;;;;;;;;;;;;;;3555837;27;20364;-44
2021/06/16 10:27:56;;;;;;;;;;;;;;;;;;3554251;27;20338;-44
2021/06/16 10:29:37;;;;;;;;;;;;;;;;;;3555667;27;20031;-45
2021/06/16 10:31:22;;;;;;;;;;;;;;;;;;3553693;27;19960;-45
2021/06/16 10:33:03;;;;;;;;;;;;;;;;;;3556254;27;19964;-44
2021/06/16 10:34:44;;;;;;;;;;;;;;;;;;3556700;27;19931;-44
2021/06/16 10:36:25;;;;;;;;;;;;;;;;;;3553749;27;19927;-44
2021/06/16 10:38:06;;;;;;;;;;;;;;;;;;3557265;27;19934;-44
2021/06/16 10:39:47;;;;;;;;;;;;;;;;;;3554299;27;20017;-44
2021/06/16 10:41:28;;;;;;;;;;;;;;;;;;3556719;27;19927;-44
2021/06/16 10:43:09;;;;;;;;;;;;;;;;;;3554490;27;20327;-44
2021/06/16 10:44:50;;;;;;;;;;;;;;;;;;3555167;27;20284;-44
2021/06/16 10:46:31;;;;;;;;;;;;;;;;;;3554423;27;19934;-45
2021/06/16 10:48:12;;;;;;;;;;;;;;;;;;3562698;27;20021;-46
2021/06/16 10:49:54;;;;;;;;;;;;;;;;;;3565199;27;19975;-45
2021/06/16 10:51:35;;;;;;;;;;;;;;;;;;3559442;27;20192;-46
2021/06/16 10:53:16;;;;;;;;;;;;;;;;;;3561542;27;20337;-44
2021/06/16 10:54:57;;;;;;;;;;;;;;;;;;3554261;27;19971;-46
2021/06/16 10:56:38;;;;;;;;;;;;;;;;;;3557470;27;19927;-45
2021/06/16 10:58:19;;;;;;;;;;;;;;;;;;3554678;27;20428;-44
2021/06/16 11:00:03;;;;;;;;;;;;;;;;;;3555436;27;19934;-45
2021/06/16 11:01:44;;;;;;;;;;;;;;;;;;3556656;27;19927;-45
2021/06/16 11:03:25;;;;;;;;;;;;;;;;;;3554063;27;19934;-45
2021/06/16 11:05:06;;;;;;;;;;;;;;;;;;3556959;27;19948;-45
2021/06/16 11:06:47;;;;;;;;;;;;;;;;;;3554900;27;19928;-45
2021/06/16 11:08:28;;;;;;;;;;;;;;;;;;3553688;27;19934;-45
2021/06/16 11:10:09;;;;;;;;;;;;;;;;;;3561486;27;20391;-45
2021/06/16 11:11:50;;;;;;;;;;;;;;;;;;3555132;27;19927;-45
2021/06/16 11:13:31;;;;;;;;;;;;;;;;;;3554201;27;20014;-46
2021/06/16 11:15:12;;;;;;;;;;;;;;;;;;3553615;27;19987;-45
2021/06/16 11:16:53;;;;;;;;;;;;;;;;;;3553616;27;19931;-44
2021/06/16 11:18:34;;;;;;;;;;;;;;;;;;3552882;27;19933;-45
2021/06/16 11:20:15;;;;;;;;;;;;;;;;;;3557161;27;20014;-45
2021/06/16 11:21:56;;;;;;;;;;;;;;;;;;3554628;27;19980;-45
2021/06/16 11:23:37;;;;;;;;;;;;;;;;;;3555365;27;19934;-45
2021/06/16 11:25:18;;;;;;;;;;;;;;;;;;3556429;27;19931;-45
2021/06/16 11:26:59;;;;;;;;;;;;;;;;;;3553400;27;20022;-45
2021/06/16 11:28:41;;;;;;;;;;;;;;;;;;3556150;27;19995;-46
2021/06/16 11:30:21;;;;;;;;;;;;;;;;;;3553811;27;19927;-44